sensor_id;sensor_type;location;lat;lon;timestamp;pressure;altitude;pressure_sealevel;temperature;humidity
11487;BME280;10510;47.942;9.442;2023-02-11T00:00:40;96432.25;;;-5.13;100.00
11487;BME280;10510;47.942;9.442;2023-02-11T00:02:41;96439.09;;;-5.15;100.00
11487;BME280;10510;47.942;9.442;2023-02-11T00:04:41;96431.53;;;-5.17;100.00
11487;BME280;10510;47.942;9.442;2023-02-11T00:06:42;96441.72;;;-5.17;100.00
11487;BME280;10510;47.942;9.442;2023-02-11T00:08:42;96436.63;;;-5.17;100.00
11487;BME280;10510;47.942;9.442;2023-02-11T00:10:42;96430.69;;;-5.17;100.00
11487;BME280;10510;47.942;9.442;2023-02-11T00:12:45;96428.16;;;-5.19;100.00
11487;BME280;10510;47.942;9.442;2023-02-11T00:14:45;96424.88;;;-5.22;100.00
11487;BME280;10510;47.942;9.442;2023-02-11T00:16:46;96422.34;;;-5.24;100.00
11487;BME280;10510;47.942;9.442;2023-02-11T00:18:46;96428.34;;;-5.25;100.00
11487;BME280;10510;47.942;9.442;2023-02-11T00:20:46;96424.13;;;-5.26;100.00
11487;BME280;10510;47.942;9.442;2023-02-11T00:22:47;96412.25;;;-5.27;100.00
11487;BME280;10510;47.942;9.442;2023-02-11T00:24:47;96410.53;;;-5.27;100.00
11487;BME280;10510;47.942;9.442;2023-02-11T00:26:48;96412.31;;;-5.29;100.00
11487;BME280;10510;47.942;9.442;2023-02-11T00:28:49;96401.28;;;-5.29;100.00
11487;BME280;10510;47.942;9.442;2023-02-11T00:30:56;96407.25;;;-5.30;100.00
11487;BME280;10510;47.942;9.442;2023-02-11T00:32:56;96397.09;;;-5.32;100.00
11487;BME280;10510;47.942;9.442;2023-02-11T00:34:57;96400.50;;;-5.33;100.00
11487;BME280;10510;47.942;9.442;2023-02-11T00:36:57;96401.41;;;-5.34;100.00
11487;BME280;10510;47.942;9.442;2023-02-11T00:38:58;96398.03;;;-5.34;100.00
11487;BME280;10510;47.942;9.442;2023-02-11T00:40:58;96390.41;;;-5.36;100.00
11487;BME280;10510;47.942;9.442;2023-02-11T00:42:59;96382.81;;;-5.37;100.00
11487;BME280;10510;47.942;9.442;2023-02-11T00:44:59;96378.59;;;-5.38;100.00
11487;BME280;10510;47.942;9.442;2023-02-11T00:46:59;96389.66;;;-5.39;100.00
11487;BME280;10510;47.942;9.442;2023-02-11T00:49:00;96389.66;;;-5.39;100.00
11487;BME280;10510;47.942;9.442;2023-02-11T00:51:01;96387.19;;;-5.41;100.00
11487;BME280;10510;47.942;9.442;2023-02-11T00:53:03;96386.31;;;-5.41;100.00
11487;BME280;10510;47.942;9.442;2023-02-11T00:55:03;96385.56;;;-5.43;100.00
11487;BME280;10510;47.942;9.442;2023-02-11T00:57:03;96383.00;;;-5.43;100.00
11487;BME280;10510;47.942;9.442;2023-02-11T00:59:04;96381.31;;;-5.44;100.00
11487;BME280;10510;47.942;9.442;2023-02-11T01:01:04;96378.75;;;-5.44;100.00
11487;BME280;10510;47.942;9.442;2023-02-11T01:03:05;96385.63;;;-5.46;100.00
11487;BME280;10510;47.942;9.442;2023-02-11T01:05:05;96381.47;;;-5.49;100.00
11487;BME280;10510;47.942;9.442;2023-02-11T01:07:06;96381.47;;;-5.49;100.00
11487;BME280;10510;47.942;9.442;2023-02-11T01:09:06;96384.94;;;-5.52;100.00
11487;BME280;10510;47.942;9.442;2023-02-11T01:11:11;96389.22;;;-5.54;100.00
11487;BME280;10510;47.942;9.442;2023-02-11T01:13:12;96387.56;;;-5.55;100.00
11487;BME280;10510;47.942;9.442;2023-02-11T01:15:14;96391.84;;;-5.57;100.00
11487;BME280;10510;47.942;9.442;2023-02-11T01:17:15;96391.13;;;-5.60;100.00
11487;BME280;10510;47.942;9.442;2023-02-11T01:19:15;96388.59;;;-5.62;100.00
11487;BME280;10510;47.942;9.442;2023-02-11T01:21:15;96386.13;;;-5.65;100.00
11487;BME280;10510;47.942;9.442;2023-02-11T01:23:15;96383.59;;;-5.65;100.00
11487;BME280;10510;47.942;9.442;2023-02-11T01:25:16;96387.09;;;-5.67;100.00
11487;BME280;10510;47.942;9.442;2023-02-11T01:27:16;96388.81;;;-5.69;100.00
11487;BME280;10510;47.942;9.442;2023-02-11T01:29:16;96390.63;;;-5.73;100.00
11487;BME280;10510;47.942;9.442;2023-02-11T01:31:17;96390.81;;;-5.79;100.00
11487;BME280;10510;47.942;9.442;2023-02-11T01:33:17;96386.72;;;-5.85;100.00
11487;BME280;10510;47.942;9.442;2023-02-11T01:35:17;96386.88;;;-5.91;100.00
11487;BME280;10510;47.942;9.442;2023-02-11T01:37:18;96388.75;;;-5.96;100.00
11487;BME280;10510;47.942;9.442;2023-02-11T01:39:18;96392.19;;;-5.99;100.00
11487;BME280;10510;47.942;9.442;2023-02-11T01:41:18;96388.81;;;-5.99;100.00
11487;BME280;10510;47.942;9.442;2023-02-11T01:43:19;96393.94;;;-6.01;100.00
11487;BME280;10510;47.942;9.442;2023-02-11T01:47:47;96392.31;;;-6.03;100.00
11487;BME280;10510;47.942;9.442;2023-02-11T01:49:55;96388.97;;;-6.05;100.00
11487;BME280;10510;47.942;9.442;2023-02-11T01:52:06;96391.53;;;-6.05;100.00
11487;BME280;10510;47.942;9.442;2023-02-11T01:54:12;96388.97;;;-6.05;100.00
11487;BME280;10510;47.942;9.442;2023-02-11T01:56:34;96383.06;;;-6.06;100.00
11487;BME280;10510;47.942;9.442;2023-02-11T01:59:00;96386.47;;;-6.07;100.00
11487;BME280;10510;47.942;9.442;2023-02-11T02:01:03;96378.03;;;-6.09;100.00
11487;BME280;10510;47.942;9.442;2023-02-11T02:03:12;96389.09;;;-6.10;100.00
11487;BME280;10510;47.942;9.442;2023-02-11T02:05:39;96388.28;;;-6.12;100.00
11487;BME280;10510;47.942;9.442;2023-02-11T02:07:55;96382.38;;;-6.12;100.00
11487;BME280;10510;47.942;9.442;2023-02-11T02:10:04;96382.41;;;-6.14;100.00
11487;BME280;10510;47.942;9.442;2023-02-11T02:12:05;96373.00;;;-6.12;100.00
11487;BME280;10510;47.942;9.442;2023-02-11T02:14:05;96376.44;;;-6.13;100.00
11487;BME280;10510;47.942;9.442;2023-02-11T02:16:14;96383.25;;;-6.13;100.00
11487;BME280;10510;47.942;9.442;2023-02-11T02:23:29;96379.16;;;-6.19;100.00
11487;BME280;10510;47.942;9.442;2023-02-11T02:25:56;96374.94;;;-6.20;100.00
11487;BME280;10510;47.942;9.442;2023-02-11T02:28:17;96376.63;;;-6.21;100.00
11487;BME280;10510;47.942;9.442;2023-02-11T02:35:18;96361.50;;;-6.25;100.00
11487;BME280;10510;47.942;9.442;2023-02-11T02:37:45;96344.59;;;-6.28;100.00
11487;BME280;10510;47.942;9.442;2023-02-11T02:39:49;96341.28;;;-6.31;100.00
11487;BME280;10510;47.942;9.442;2023-02-11T02:41:50;96328.66;;;-6.34;100.00
11487;BME280;10510;47.942;9.442;2023-02-11T02:43:52;96320.22;;;-6.36;100.00
11487;BME280;10510;47.942;9.442;2023-02-11T02:45:53;96316.84;;;-6.37;100.00
11487;BME280;10510;47.942;9.442;2023-02-11T02:47:53;96330.38;;;-6.35;100.00
11487;BME280;10510;47.942;9.442;2023-02-11T02:49:53;96326.88;;;-6.32;100.00
11487;BME280;10510;47.942;9.442;2023-02-11T02:56:39;96328.41;;;-6.25;100.00
11487;BME280;10510;47.942;9.442;2023-02-11T02:58:51;96326.69;;;-6.25;100.00
11487;BME280;10510;47.942;9.442;2023-02-11T03:01:28;96317.34;;;-6.24;100.00
11487;BME280;10510;47.942;9.442;2023-02-11T03:08:17;96308.75;;;-6.20;100.00
11487;BME280;10510;47.942;9.442;2023-02-11T03:10:29;96307.13;;;-6.23;100.00
11487;BME280;10510;47.942;9.442;2023-02-11T03:12:31;96305.44;;;-6.24;100.00
11487;BME280;10510;47.942;9.442;2023-02-11T03:14:34;96301.22;;;-6.25;100.00
11487;BME280;10510;47.942;9.442;2023-02-11T03:16:35;96305.53;;;-6.27;100.00
11487;BME280;10510;47.942;9.442;2023-02-11T03:18:40;96301.28;;;-6.26;100.00
11487;BME280;10510;47.942;9.442;2023-02-11T03:20:44;96309.84;;;-6.29;100.00
11487;BME280;10510;47.942;9.442;2023-02-11T03:23:07;96307.31;;;-6.30;100.00
11487;BME280;10510;47.942;9.442;2023-02-11T03:25:09;96310.75;;;-6.31;100.00
11487;BME280;10510;47.942;9.442;2023-02-11T03:27:32;96303.97;;;-6.32;100.00
11487;BME280;10510;47.942;9.442;2023-02-11T03:29:40;96305.69;;;-6.33;100.00
11487;BME280;10510;47.942;9.442;2023-02-11T03:31:53;96307.41;;;-6.33;100.00
11487;BME280;10510;47.942;9.442;2023-02-11T03:34:18;96300.59;;;-6.33;100.00
11487;BME280;10510;47.942;9.442;2023-02-11T03:36:27;96303.13;;;-6.31;100.00
11487;BME280;10510;47.942;9.442;2023-02-11T03:38:44;96300.56;;;-6.31;100.00
11487;BME280;10510;47.942;9.442;2023-02-11T03:40:46;96300.56;;;-6.31;100.00
11487;BME280;10510;47.942;9.442;2023-02-11T03:42:53;96294.66;;;-6.32;100.00
11487;BME280;10510;47.942;9.442;2023-02-11T03:45:00;96303.97;;;-6.32;100.00
11487;BME280;10510;47.942;9.442;2023-02-11T03:47:04;96300.66;;;-6.34;100.00
11487;BME280;10510;47.942;9.442;2023-02-11T03:49:10;96293.03;;;-6.36;100.00
11487;BME280;10510;47.942;9.442;2023-02-11T03:51:14;96297.38;;;-6.40;100.00
11487;BME280;10510;47.942;9.442;2023-02-11T03:53:16;96298.28;;;-6.42;100.00
11487;BME280;10510;47.942;9.442;2023-02-11T03:55:19;96295.81;;;-6.44;100.00
11487;BME280;10510;47.942;9.442;2023-02-11T03:57:19;96291.56;;;-6.45;100.00
11487;BME280;10510;47.942;9.442;2023-02-11T03:59:20;96296.66;;;-6.45;100.00
11487;BME280;10510;47.942;9.442;2023-02-11T04:01:21;96294.94;;;-6.44;100.00
11487;BME280;10510;47.942;9.442;2023-02-11T04:03:21;96289.84;;;-6.43;100.00
11487;BME280;10510;47.942;9.442;2023-02-11T04:05:21;96290.63;;;-6.41;100.00
11487;BME280;10510;47.942;9.442;2023-02-11T04:07:22;96293.97;;;-6.38;100.00
11487;BME280;10510;47.942;9.442;2023-02-11T04:09:22;96285.41;;;-6.36;100.00
11487;BME280;10510;47.942;9.442;2023-02-11T04:11:22;96292.97;;;-6.33;100.00
11487;BME280;10510;47.942;9.442;2023-02-11T04:13:23;96300.50;;;-6.28;100.00
11487;BME280;10510;47.942;9.442;2023-02-11T04:15:24;96295.31;;;-6.25;100.00
11487;BME280;10510;47.942;9.442;2023-02-11T04:17:24;96297.78;;;-6.22;100.00
11487;BME280;10510;47.942;9.442;2023-02-11T04:19:24;96296.03;;;-6.20;100.00
11487;BME280;10510;47.942;9.442;2023-02-11T04:21:24;96293.44;;;-6.19;100.00
11487;BME280;10510;47.942;9.442;2023-02-11T04:23:25;96295.88;;;-6.15;100.00
11487;BME280;10510;47.942;9.442;2023-02-11T04:25:25;96300.13;;;-6.14;100.00
11487;BME280;10510;47.942;9.442;2023-02-11T04:27:26;96305.16;;;-6.13;100.00
11487;BME280;10510;47.942;9.442;2023-02-11T04:29:26;96311.91;;;-6.12;100.00
11487;BME280;10510;47.942;9.442;2023-02-11T04:31:27;96311.88;;;-6.10;100.00
11487;BME280;10510;47.942;9.442;2023-02-11T04:33:27;96312.63;;;-6.07;100.00
11487;BME280;10510;47.942;9.442;2023-02-11T04:35:27;96313.44;;;-6.05;100.00
11487;BME280;10510;47.942;9.442;2023-02-11T04:37:28;96304.91;;;-6.04;100.00
11487;BME280;10510;47.942;9.442;2023-02-11T04:39:28;96311.69;;;-6.03;100.00
11487;BME280;10510;47.942;9.442;2023-02-11T04:41:28;96314.16;;;-6.01;100.00
11487;BME280;10510;47.942;9.442;2023-02-11T04:43:29;96315.81;;;-6.00;100.00
11487;BME280;10510;47.942;9.442;2023-02-11T04:45:29;96323.44;;;-5.99;100.00
11487;BME280;10510;47.942;9.442;2023-02-11T04:47:29;96324.28;;;-5.98;100.00
11487;BME280;10510;47.942;9.442;2023-02-11T04:49:30;96328.47;;;-5.97;100.00
11487;BME280;10510;47.942;9.442;2023-02-11T04:51:30;96330.09;;;-5.95;100.00
11487;BME280;10510;47.942;9.442;2023-02-11T04:53:30;96334.34;;;-5.93;100.00
11487;BME280;10510;47.942;9.442;2023-02-11T04:55:31;96338.50;;;-5.93;100.00
11487;BME280;10510;47.942;9.442;2023-02-11T04:57:31;96333.41;;;-5.93;100.00
11487;BME280;10510;47.942;9.442;2023-02-11T04:59:31;96329.28;;;-5.95;100.00
11487;BME280;10510;47.942;9.442;2023-02-11T05:01:32;96333.63;;;-5.99;100.00
11487;BME280;10510;47.942;9.442;2023-02-11T05:03:32;96332.00;;;-6.01;100.00
11487;BME280;10510;47.942;9.442;2023-02-11T05:05:33;96340.53;;;-6.02;100.00
11487;BME280;10510;47.942;9.442;2023-02-11T05:07:33;96344.78;;;-6.03;100.00
11487;BME280;10510;47.942;9.442;2023-02-11T05:09:33;96342.19;;;-6.01;100.00
11487;BME280;10510;47.942;9.442;2023-02-11T05:11:33;96345.53;;;-5.99;100.00
11487;BME280;10510;47.942;9.442;2023-02-11T05:13:35;96346.34;;;-5.99;100.00
11487;BME280;10510;47.942;9.442;2023-02-11T05:15:36;96347.16;;;-5.97;100.00
11487;BME280;10510;47.942;9.442;2023-02-11T05:17:36;96350.47;;;-5.95;100.00
11487;BME280;10510;47.942;9.442;2023-02-11T05:19:36;96344.56;;;-5.95;100.00
11487;BME280;10510;47.942;9.442;2023-02-11T05:21:36;96338.63;;;-5.96;100.00
11487;BME280;10510;47.942;9.442;2023-02-11T05:23:38;96336.97;;;-5.97;100.00
11487;BME280;10510;47.942;9.442;2023-02-11T05:25:41;96337.00;;;-5.98;100.00
11487;BME280;10510;47.942;9.442;2023-02-11T05:27:42;96331.97;;;-6.00;100.00
11487;BME280;10510;47.942;9.442;2023-02-11T05:29:42;96337.06;;;-6.00;100.00
11487;BME280;10510;47.942;9.442;2023-02-11T05:31:42;96332.81;;;-6.01;100.00
11487;BME280;10510;47.942;9.442;2023-02-11T05:33:42;96323.53;;;-6.02;100.00
11487;BME280;10510;47.942;9.442;2023-02-11T05:35:43;96321.00;;;-6.03;100.00
11487;BME280;10510;47.942;9.442;2023-02-11T05:37:43;96326.09;;;-6.03;100.00
11487;BME280;10510;47.942;9.442;2023-02-11T05:39:43;96326.97;;;-6.03;100.00
11487;BME280;10510;47.942;9.442;2023-02-11T05:41:44;96328.53;;;-5.99;100.00
11487;BME280;10510;47.942;9.442;2023-02-11T05:43:47;96333.53;;;-5.96;100.00
11487;BME280;10510;47.942;9.442;2023-02-11T05:45:50;96330.78;;;-5.89;100.00
11487;BME280;10510;47.942;9.442;2023-02-11T05:47:50;96325.59;;;-5.85;100.00
11487;BME280;10510;47.942;9.442;2023-02-11T05:49:50;96329.66;;;-5.79;100.00
11487;BME280;10510;47.942;9.442;2023-02-11T05:51:52;96320.13;;;-5.73;100.00
11487;BME280;10510;47.942;9.442;2023-02-11T05:53:53;96319.97;;;-5.68;100.00
11487;BME280;10510;47.942;9.442;2023-02-11T05:55:53;96320.69;;;-5.63;100.00
11487;BME280;10510;47.942;9.442;2023-02-11T05:57:53;96325.59;;;-5.57;100.00
11487;BME280;10510;47.942;9.442;2023-02-11T05:59:54;96324.59;;;-5.51;100.00
11487;BME280;10510;47.942;9.442;2023-02-11T06:01:54;96332.88;;;-5.44;100.00
11487;BME280;10510;47.942;9.442;2023-02-11T06:03:54;96327.69;;;-5.41;100.00
11487;BME280;10510;47.942;9.442;2023-02-11T06:05:55;96329.22;;;-5.36;100.00
11487;BME280;10510;47.942;9.442;2023-02-11T06:07:55;96328.28;;;-5.32;100.00
11487;BME280;10510;47.942;9.442;2023-02-11T06:09:55;96331.50;;;-5.27;100.00
11487;BME280;10510;47.942;9.442;2023-02-11T06:11:56;96325.44;;;-5.22;100.00
11487;BME280;10510;47.942;9.442;2023-02-11T06:13:56;96319.34;;;-5.18;100.00
11487;BME280;10510;47.942;9.442;2023-02-11T06:15:58;96307.34;;;-5.15;100.00
11487;BME280;10510;47.942;9.442;2023-02-11T06:17:58;96297.91;;;-5.11;100.00
11487;BME280;10510;47.942;9.442;2023-02-11T06:19:59;96290.97;;;-5.08;100.00
11487;BME280;10510;47.942;9.442;2023-02-11T06:22:00;96283.13;;;-5.02;100.00
11487;BME280;10510;47.942;9.442;2023-02-11T06:24:00;96272.84;;;-4.98;100.00
11487;BME280;10510;47.942;9.442;2023-02-11T06:26:02;96262.44;;;-4.92;100.00
11487;BME280;10510;47.942;9.442;2023-02-11T06:28:02;96253.75;;;-4.87;100.00
11487;BME280;10510;47.942;9.442;2023-02-11T06:30:04;96256.16;;;-4.82;100.00
11487;BME280;10510;47.942;9.442;2023-02-11T06:32:05;96248.34;;;-4.77;100.00
11487;BME280;10510;47.942;9.442;2023-02-11T06:34:07;96236.31;;;-4.74;100.00
11487;BME280;10510;47.942;9.442;2023-02-11T06:36:13;96230.16;;;-4.68;100.00
11487;BME280;10510;47.942;9.442;2023-02-11T06:38:14;96218.97;;;-4.64;100.00
11487;BME280;10510;47.942;9.442;2023-02-11T06:40:14;96217.16;;;-4.61;100.00
11487;BME280;10510;47.942;9.442;2023-02-11T06:42:15;96233.16;;;-4.55;100.00
11487;BME280;10510;47.942;9.442;2023-02-11T06:44:15;96241.41;;;-4.49;100.00
11487;BME280;10510;47.942;9.442;2023-02-11T06:46:15;96245.19;;;-4.36;100.00
11487;BME280;10510;47.942;9.442;2023-02-11T06:48:16;96252.47;;;-4.25;100.00
11487;BME280;10510;47.942;9.442;2023-02-11T06:50:16;96258.28;;;-4.20;100.00
11487;BME280;10510;47.942;9.442;2023-02-11T06:52:16;96270.94;;;-4.17;100.00
11487;BME280;10510;47.942;9.442;2023-02-11T06:54:16;96280.13;;;-4.13;100.00
11487;BME280;10510;47.942;9.442;2023-02-11T06:56:19;96286.94;;;-4.12;100.00
11487;BME280;10510;47.942;9.442;2023-02-11T06:58:20;96299.69;;;-4.12;100.00
11487;BME280;10510;47.942;9.442;2023-02-11T07:00:20;96306.50;;;-4.12;100.00
11487;BME280;10510;47.942;9.442;2023-02-11T07:02:20;96305.66;;;-4.13;100.00
11487;BME280;10510;47.942;9.442;2023-02-11T07:04:23;96312.41;;;-4.10;100.00
11487;BME280;10510;47.942;9.442;2023-02-11T07:06:25;96310.66;;;-4.09;100.00
11487;BME280;10510;47.942;9.442;2023-02-11T07:08:26;96306.41;;;-4.09;100.00
11487;BME280;10510;47.942;9.442;2023-02-11T07:10:27;96302.91;;;-4.06;100.00
11487;BME280;10510;47.942;9.442;2023-02-11T07:12:27;96313.06;;;-4.05;100.00
11487;BME280;10510;47.942;9.442;2023-02-11T07:14:28;96305.41;;;-4.05;100.00
11487;BME280;10510;47.942;9.442;2023-02-11T07:16:28;96309.63;;;-4.04;100.00
11487;BME280;10510;47.942;9.442;2023-02-11T07:18:29;96311.25;;;-4.01;100.00
11487;BME280;10510;47.942;9.442;2023-02-11T07:20:29;96312.78;;;-3.97;100.00
11487;BME280;10510;47.942;9.442;2023-02-11T07:22:30;96313.47;;;-3.92;100.00
11487;BME280;10510;47.942;9.442;2023-02-11T07:24:30;96313.25;;;-3.86;100.00
11487;BME280;10510;47.942;9.442;2023-02-11T07:26:31;96305.34;;;-3.80;100.00
11487;BME280;10510;47.942;9.442;2023-02-11T07:28:33;96314.47;;;-3.73;100.00
11487;BME280;10510;47.942;9.442;2023-02-11T07:30:33;96321.97;;;-3.68;100.00
11487;BME280;10510;47.942;9.442;2023-02-11T07:32:34;96327.75;;;-3.63;100.00
11487;BME280;10510;47.942;9.442;2023-02-11T07:34:34;96326.69;;;-3.57;100.00
11487;BME280;10510;47.942;9.442;2023-02-11T07:36:35;96334.09;;;-3.50;100.00
11487;BME280;10510;47.942;9.442;2023-02-11T07:38:36;96336.34;;;-3.42;100.00
11487;BME280;10510;47.942;9.442;2023-02-11T07:40:37;96336.91;;;-3.34;100.00
11487;BME280;10510;47.942;9.442;2023-02-11T07:42:37;96330.66;;;-3.27;100.00
11487;BME280;10510;47.942;9.442;2023-02-11T07:44:40;96338.81;;;-3.17;100.00
11487;BME280;10510;47.942;9.442;2023-02-11T07:46:40;96342.75;;;-3.08;100.00
11487;BME280;10510;47.942;9.442;2023-02-11T07:48:43;96342.53;;;-3.02;100.00
11487;BME280;10510;47.942;9.442;2023-02-11T07:50:44;96341.44;;;-2.97;100.00
11487;BME280;10510;47.942;9.442;2023-02-11T07:52:44;96357.38;;;-2.90;100.00
11487;BME280;10510;47.942;9.442;2023-02-11T07:54:46;96363.91;;;-2.83;100.00
11487;BME280;10510;47.942;9.442;2023-02-11T07:56:47;96347.44;;;-2.76;100.00
11487;BME280;10510;47.942;9.442;2023-02-11T07:58:48;96354.81;;;-2.68;100.00
11487;BME280;10510;47.942;9.442;2023-02-11T08:00:48;96358.84;;;-2.62;100.00
11487;BME280;10510;47.942;9.442;2023-02-11T08:02:48;96356.00;;;-2.55;100.00
11487;BME280;10510;47.942;9.442;2023-02-11T08:04:49;96349.66;;;-2.46;100.00
11487;BME280;10510;47.942;9.442;2023-02-11T08:06:49;96333.91;;;-2.37;100.00
11487;BME280;10510;47.942;9.442;2023-02-11T08:08:52;96336.16;;;-2.29;100.00
11487;BME280;10510;47.942;9.442;2023-02-11T08:10:52;96337.75;;;-2.26;100.00
11487;BME280;10510;47.942;9.442;2023-02-11T08:12:52;96329.06;;;-2.22;100.00
11487;BME280;10510;47.942;9.442;2023-02-11T08:14:54;96336.41;;;-2.15;100.00
11487;BME280;10510;47.942;9.442;2023-02-11T08:16:55;96330.91;;;-2.06;100.00
11487;BME280;10510;47.942;9.442;2023-02-11T08:18:58;96317.84;;;-1.99;100.00
11487;BME280;10510;47.942;9.442;2023-02-11T08:21:06;96325.16;;;-1.92;100.00
11487;BME280;10510;47.942;9.442;2023-02-11T08:23:07;96315.56;;;-1.87;100.00
11487;BME280;10510;47.942;9.442;2023-02-11T08:25:07;96316.25;;;-1.83;100.00
11487;BME280;10510;47.942;9.442;2023-02-11T08:27:07;96324.63;;;-1.79;100.00
11487;BME280;10510;47.942;9.442;2023-02-11T08:29:10;96314.28;;;-1.76;100.00
11487;BME280;10510;47.942;9.442;2023-02-11T08:31:14;96307.19;;;-1.71;100.00
11487;BME280;10510;47.942;9.442;2023-02-11T08:33:14;96300.06;;;-1.65;100.00
11487;BME280;10510;47.942;9.442;2023-02-11T08:35:15;96300.53;;;-1.56;100.00
11487;BME280;10510;47.942;9.442;2023-02-11T08:37:15;96301.94;;;-1.49;100.00
11487;BME280;10510;47.942;9.442;2023-02-11T08:39:20;96299.88;;;-1.41;100.00
11487;BME280;10510;47.942;9.442;2023-02-11T08:41:21;96303.47;;;-1.26;100.00
11487;BME280;10510;47.942;9.442;2023-02-11T08:43:21;96306.28;;;-1.13;100.00
11487;BME280;10510;47.942;9.442;2023-02-11T08:45:22;96300.66;;;-1.03;100.00
11487;BME280;10510;47.942;9.442;2023-02-11T08:47:22;96292.97;;;-0.85;100.00
11487;BME280;10510;47.942;9.442;2023-02-11T08:49:23;96279.41;;;-0.70;100.00
11487;BME280;10510;47.942;9.442;2023-02-11T08:51:25;96282.81;;;-0.52;100.00
11487;BME280;10510;47.942;9.442;2023-02-11T08:53:30;96274.25;;;-0.35;100.00
11487;BME280;10510;47.942;9.442;2023-02-11T08:55:30;96270.31;;;-0.25;100.00
11487;BME280;10510;47.942;9.442;2023-02-11T08:57:31;96271.94;;;-0.07;100.00
11487;BME280;10510;47.942;9.442;2023-02-11T08:59:31;96263.78;;;0.18;100.00
11487;BME280;10510;47.942;9.442;2023-02-11T09:01:32;96266.09;;;0.23;100.00
11487;BME280;10510;47.942;9.442;2023-02-11T09:03:32;96263.22;;;0.29;100.00
11487;BME280;10510;47.942;9.442;2023-02-11T09:05:32;96253.34;;;0.37;100.00
11487;BME280;10510;47.942;9.442;2023-02-11T09:07:32;96263.84;;;0.50;100.00
11487;BME280;10510;47.942;9.442;2023-02-11T09:09:34;96266.91;;;0.57;100.00
11487;BME280;10510;47.942;9.442;2023-02-11T09:11:35;96279.28;;;0.66;100.00
11487;BME280;10510;47.942;9.442;2023-02-11T09:13:36;96278.94;;;0.72;100.00
11487;BME280;10510;47.942;9.442;2023-02-11T09:15:36;96279.53;;;0.77;100.00
11487;BME280;10510;47.942;9.442;2023-02-11T09:17:37;96289.47;;;0.83;100.00
11487;BME280;10510;47.942;9.442;2023-02-11T09:19:37;96296.88;;;0.89;100.00
11487;BME280;10510;47.942;9.442;2023-02-11T09:21:37;96312.63;;;0.99;100.00
11487;BME280;10510;47.942;9.442;2023-02-11T09:23:38;96314.53;;;1.11;100.00
11487;BME280;10510;47.942;9.442;2023-02-11T09:25:40;96314.28;;;1.16;100.00
11487;BME280;10510;47.942;9.442;2023-02-11T09:27:41;96324.25;;;1.22;100.00
11487;BME280;10510;47.942;9.442;2023-02-11T09:29:41;96330.63;;;1.31;100.00
11487;BME280;10510;47.942;9.442;2023-02-11T09:31:41;96337.84;;;1.40;100.00
11487;BME280;10510;47.942;9.442;2023-02-11T09:33:44;96329.59;;;1.49;100.00
11487;BME280;10510;47.942;9.442;2023-02-11T09:35:48;96325.38;;;1.48;100.00
11487;BME280;10510;47.942;9.442;2023-02-11T09:37:48;96319.47;;;1.46;100.00
11487;BME280;10510;47.942;9.442;2023-02-11T09:39:48;96321.97;;;1.48;100.00
11487;BME280;10510;47.942;9.442;2023-02-11T09:42:09;96322.44;;;1.54;100.00
11487;BME280;10510;47.942;9.442;2023-02-11T09:44:24;96320.97;;;1.65;100.00
11487;BME280;10510;47.942;9.442;2023-02-11T09:46:30;96329.63;;;1.79;100.00
11487;BME280;10510;47.942;9.442;2023-02-11T09:48:38;96329.78;;;1.91;100.00
11487;BME280;10510;47.942;9.442;2023-02-11T09:50:46;96316.94;;;2.05;100.00
11487;BME280;10510;47.942;9.442;2023-02-11T09:53:00;96317.75;;;2.20;100.00
11487;BME280;10510;47.942;9.442;2023-02-11T09:55:04;96314.75;;;2.27;100.00
11487;BME280;10510;47.942;9.442;2023-02-11T09:57:07;96312.72;;;2.33;100.00
11487;BME280;10510;47.942;9.442;2023-02-11T09:59:15;96316.59;;;2.40;100.00
11487;BME280;10510;47.942;9.442;2023-02-11T10:01:29;96316.75;;;2.51;100.00
11487;BME280;10510;47.942;9.442;2023-02-11T10:04:03;96319.97;;;2.55;100.00
11487;BME280;10510;47.942;9.442;2023-02-11T10:06:14;96317.47;;;2.67;100.00
11487;BME280;10510;47.942;9.442;2023-02-11T10:11:34;96301.69;;;3.40;100.00
11487;BME280;10510;47.942;9.442;2023-02-11T10:13:54;96304.41;;;3.52;100.00
11487;BME280;10510;47.942;9.442;2023-02-11T10:16:18;96309.50;;;3.53;100.00
11487;BME280;10510;47.942;9.442;2023-02-11T10:19:32;96306.75;;;3.82;100.00
11487;BME280;10510;47.942;9.442;2023-02-11T10:21:35;96299.72;;;3.97;100.00
11487;BME280;10510;47.942;9.442;2023-02-11T10:23:44;96303.38;;;4.07;100.00
11487;BME280;10510;47.942;9.442;2023-02-11T10:25:48;96308.63;;;4.05;100.00
11487;BME280;10510;47.942;9.442;2023-02-11T10:27:51;96310.50;;;4.03;100.00
11487;BME280;10510;47.942;9.442;2023-02-11T10:30:26;96307.91;;;4.16;100.00
11487;BME280;10510;47.942;9.442;2023-02-11T10:32:44;96303.97;;;4.23;100.00
11487;BME280;10510;47.942;9.442;2023-02-11T10:34:46;96290.41;;;4.45;100.00
11487;BME280;10510;47.942;9.442;2023-02-11T10:36:47;96285.97;;;4.84;100.00
11487;BME280;10510;47.942;9.442;2023-02-11T10:38:47;96283.19;;;5.11;100.00
11487;BME280;10510;47.942;9.442;2023-02-11T10:40:47;96288.16;;;5.38;100.00
11487;BME280;10510;47.942;9.442;2023-02-11T10:42:50;96289.91;;;5.73;100.00
11487;BME280;10510;47.942;9.442;2023-02-11T10:44:57;96289.91;;;5.97;100.00
11487;BME280;10510;47.942;9.442;2023-02-11T10:47:03;96287.94;;;6.12;100.00
11487;BME280;10510;47.942;9.442;2023-02-11T10:49:04;96285.25;;;6.36;100.00
11487;BME280;10510;47.942;9.442;2023-02-11T10:51:19;96273.31;;;6.56;100.00
11487;BME280;10510;47.942;9.442;2023-02-11T10:53:20;96280.84;;;6.70;100.00
11487;BME280;10510;47.942;9.442;2023-02-11T10:55:25;96276.13;;;6.75;100.00
11487;BME280;10510;47.942;9.442;2023-02-11T10:57:35;96281.66;;;6.93;100.00
11487;BME280;10510;47.942;9.442;2023-02-11T10:59:37;96272.75;;;7.18;100.00
11487;BME280;10510;47.942;9.442;2023-02-11T11:01:49;96276.00;;;7.32;100.00
11487;BME280;10510;47.942;9.442;2023-02-11T11:03:51;96278.06;;;7.49;100.00
11487;BME280;10510;47.942;9.442;2023-02-11T11:05:56;96271.84;;;7.61;100.00
11487;BME280;10510;47.942;9.442;2023-02-11T11:08:07;96259.50;;;7.74;100.00
11487;BME280;10510;47.942;9.442;2023-02-11T11:10:35;96257.00;;;7.73;100.00
11487;BME280;10510;47.942;9.442;2023-02-11T11:14:53;96246.84;;;7.91;100.00